^^
Station Historical Data
Daily Summary for February 13, 2018 Units:  Metric    English   Both
« Previous Day
Next Day »
Daily Weekly Monthly Yearly Custom
  High: Low: Average:
Temperature: -17.8 °C -22.8 °C -13.9 °C
Dew Point: -17.8 °C -24.9 °C -16.3 °C
Humidity: Humidity % 72 % 82 %
Wind Speed: 0 km/h 0 km/h 0.5 km/h
Wind Gust: 0 km/h - -
Wind:- - West
Pressure: 0 hPa 1028 hPa -
Precipitation: 0 mm    
Historical Graphs
 
 
Tabular Data for February 13, 2018
Time Temperature Dew Point Pressure Wind Wind Speed Wind Gust Humidity Rainfall Rate (Hourly) solar Conditions
-17.8 °C -17.8 °C 0 hPa Calm     Humidity % 0 mm SoftwareType W/m2 Conditions
00:00 -15.8 °C -18.1 °C 1039.2 hPa Calm     83 % 0 mm WeatherDisplay:10.37 W/m2 SKC
00:05 -16 °C -18.2 °C 1039.2 hPa Calm     83 % 0 mm WeatherDisplay:10.37 W/m2 SKC
00:10 -16.1 °C -18.5 °C 1039.2 hPa Calm     82 % 0 mm WeatherDisplay:10.37 W/m2 SKC
00:15 -16.3 °C -18.7 °C 1039.5 hPa Calm     82 % 0 mm WeatherDisplay:10.37 W/m2 SKC
00:20 -16.5 °C -18.8 °C 1039.5 hPa Calm     82 % 0 mm WeatherDisplay:10.37 W/m2 SKC
00:25 -16.7 °C -19.1 °C 1039.5 hPa Calm     82 % 0 mm WeatherDisplay:10.37 W/m2 SKC
00:30 -16.8 °C -19.2 °C 1039.5 hPa Calm     82 % 0 mm WeatherDisplay:10.37 W/m2 SKC
00:35 -17.1 °C -19.4 °C 1039.8 hPa Calm     82 % 0 mm WeatherDisplay:10.37 W/m2 SKC
00:40 -17.3 °C -19.6 °C 1039.8 hPa Calm     82 % 0 mm WeatherDisplay:10.37 W/m2 SKC
00:45 -17.4 °C -19.7 °C 1039.8 hPa Calm     82 % 0 mm WeatherDisplay:10.37 W/m2 SKC
00:50 -17.6 °C -19.9 °C 1039.8 hPa Calm     82 % 0 mm WeatherDisplay:10.37 W/m2 SKC
00:55 -17.6 °C -19.9 °C 1040.2 hPa Calm     82 % 0 mm WeatherDisplay:10.37 W/m2 SKC
01:00 -17.8 °C -20.1 °C 1040.2 hPa Calm     82 % 0 mm WeatherDisplay:10.37 W/m2 SKC
01:05 -17.9 °C -20.1 °C 1040.2 hPa Calm     83 % 0 mm WeatherDisplay:10.37 W/m2 SKC
01:10 -18 °C -20.2 °C 1040.2 hPa Calm     83 % 0 mm WeatherDisplay:10.37 W/m2 SKC
01:15 -18.1 °C -20.3 °C 1040.2 hPa Calm     83 % 0 mm WeatherDisplay:10.37 W/m2 SKC
01:20 -18.2 °C -20.4 °C 1040.5 hPa Calm     83 % 0 mm WeatherDisplay:10.37 W/m2 SKC
01:25 -18.3 °C -20.5 °C 1040.5 hPa Calm     83 % 0 mm WeatherDisplay:10.37 W/m2 SKC
01:30 -18.4 °C -20.6 °C 1040.5 hPa Calm     83 % 0 mm WeatherDisplay:10.37 W/m2 SKC
01:35 -18.6 °C -20.7 °C 1040.9 hPa Calm     83 % 0 mm WeatherDisplay:10.37 W/m2 SKC
01:40 -18.7 °C -20.8 °C 1040.9 hPa Calm     83 % 0 mm WeatherDisplay:10.37 W/m2 SKC
01:45 -18.8 °C -20.9 °C 1040.9 hPa Calm     83 % 0 mm WeatherDisplay:10.37 W/m2 SKC
01:50 -18.9 °C -21.1 °C 1040.9 hPa Calm     83 % 0 mm WeatherDisplay:10.37 W/m2 SKC
01:55 -19 °C -21.2 °C 1040.9 hPa Calm     83 % 0 mm WeatherDisplay:10.37 W/m2 SKC
02:00 -19.2 °C -21.3 °C 1041.2 hPa Calm     83 % 0 mm WeatherDisplay:10.37 W/m2 SKC
02:05 -19.3 °C -21.4 °C 1041.2 hPa Calm     83 % 0 mm WeatherDisplay:10.37 W/m2 SKC
02:10 -19.4 °C -21.6 °C 1041.2 hPa Calm     83 % 0 mm WeatherDisplay:10.37 W/m2 SKC
02:15 -19.6 °C -21.7 °C 1041.2 hPa Calm     83 % 0 mm WeatherDisplay:10.37 W/m2 SKC
02:20 -19.7 °C -21.8 °C 1040.9 hPa Calm     83 % 0 mm WeatherDisplay:10.37 W/m2 SKC
02:25 -19.8 °C -21.9 °C 1041.2 hPa Calm     83 % 0 mm WeatherDisplay:10.37 W/m2 SKC
02:30 -19.9 °C -22.1 °C 1041.2 hPa Calm   1.6 km/h 83 % 0 mm WeatherDisplay:10.37 W/m2 SKC
02:35 -20.1 °C -22.2 °C 1041.2 hPa Calm     83 % 0 mm WeatherDisplay:10.37 W/m2 SKC
02:40 -20.1 °C -22.3 °C 1041.2 hPa Calm   1.6 km/h 83 % 0 mm WeatherDisplay:10.37 W/m2 SKC
02:45 -20.2 °C -22.3 °C 1041.2 hPa Calm   1.6 km/h 83 % 0 mm WeatherDisplay:10.37 W/m2 SKC
02:50 -20.2 °C -22.4 °C 1041.2 hPa Calm   1.6 km/h 83 % 0 mm WeatherDisplay:10.37 W/m2 SKC
02:55 -20.3 °C -22.4 °C 1041.2 hPa Calm     83 % 0 mm WeatherDisplay:10.37 W/m2 SKC
03:00 -20.3 °C -22.3 °C 1041.2 hPa Calm     84 % 0 mm WeatherDisplay:10.37 W/m2 SKC
03:05 -20.4 °C -22.6 °C 1041.5 hPa Calm     83 % 0 mm WeatherDisplay:10.37 W/m2 SKC
03:10 -20.5 °C -22.6 °C 1041.5 hPa Calm     83 % 0 mm WeatherDisplay:10.37 W/m2 SKC
03:20 -20.6 °C -22.7 °C 1041.5 hPa Calm     83 % 0 mm WeatherDisplay:10.37 W/m2 SKC
03:25 -20.7 °C -22.8 °C 1041.5 hPa Calm     83 % 0 mm WeatherDisplay:10.37 W/m2 SKC
03:30 -20.8 °C -22.9 °C 1041.5 hPa Calm     83 % 0 mm WeatherDisplay:10.37 W/m2 SKC
03:35 -20.9 °C -23 °C 1041.5 hPa Calm     83 % 0 mm WeatherDisplay:10.37 W/m2 SKC
03:45 -21.1 °C -23.2 °C 1041.5 hPa Calm     83 % 0 mm WeatherDisplay:10.37 W/m2 SKC
03:55 -21.2 °C -23.3 °C 1041.5 hPa Calm     83 % 0 mm WeatherDisplay:10.37 W/m2 SKC
04:00 -21.2 °C -23.3 °C 1041.5 hPa Calm     83 % 0 mm WeatherDisplay:10.37 W/m2 SKC
04:05 -21.3 °C -23.3 °C 1041.5 hPa Calm     84 % 0 mm WeatherDisplay:10.37 W/m2 SKC
04:10 -21.3 °C -23.3 °C 1041.5 hPa Calm     84 % 0 mm WeatherDisplay:10.37 W/m2 SKC
04:15 -21.3 °C -23.3 °C 1041.5 hPa Calm     84 % 0 mm WeatherDisplay:10.37 W/m2 SKC
04:20 -21.3 °C -23.3 °C 1041.5 hPa Calm     84 % 0 mm WeatherDisplay:10.37 W/m2 SKC
04:25 -21.3 °C -23.3 °C 1041.5 hPa Calm     84 % 0 mm WeatherDisplay:10.37 W/m2 SKC
04:35 -21.4 °C -23.4 °C 1041.5 hPa Calm     84 % 0 mm WeatherDisplay:10.37 W/m2 SKC
04:40 -21.5 °C -23.5 °C 1041.9 hPa Calm     84 % 0 mm WeatherDisplay:10.37 W/m2 SKC
04:45 -21.6 °C -23.6 °C 1041.9 hPa Calm     84 % 0 mm WeatherDisplay:10.37 W/m2 SKC
04:50 -21.6 °C -23.6 °C 1041.9 hPa Calm     84 % 0 mm WeatherDisplay:10.37 W/m2 SKC
04:55 -21.7 °C -23.7 °C 1041.9 hPa Calm     84 % 0 mm WeatherDisplay:10.37 W/m2 SKC
05:00 -21.8 °C -23.9 °C 1041.9 hPa Calm     83 % 0 mm WeatherDisplay:10.37 W/m2 SKC
05:05 -21.8 °C -23.9 °C 1041.9 hPa Calm     83 % 0 mm WeatherDisplay:10.37 W/m2 SKC
05:10 -21.8 °C -23.9 °C 1042.2 hPa Calm     83 % 0 mm WeatherDisplay:10.37 W/m2 SKC
05:15 -21.8 °C -23.8 °C 1042.2 hPa Calm     84 % 0 mm WeatherDisplay:10.37 W/m2 SKC
05:20 -21.9 °C -23.9 °C 1041.9 hPa Calm     84 % 0 mm WeatherDisplay:10.37 W/m2 SKC
05:25 -22 °C -23.9 °C 1041.9 hPa Calm     84 % 0 mm WeatherDisplay:10.37 W/m2 SKC
05:30 -22.1 °C -24.2 °C 1042.2 hPa Calm     83 % 0 mm WeatherDisplay:10.37 W/m2 SKC
05:35 -22.1 °C -24.2 °C 1041.9 hPa Calm     83 % 0 mm WeatherDisplay:10.37 W/m2 SKC
05:40 -22.2 °C -24.3 °C 1042.2 hPa Calm     83 % 0 mm WeatherDisplay:10.37 W/m2 SKC
05:45 -22.2 °C -24.3 °C 1042.2 hPa Calm     83 % 0 mm WeatherDisplay:10.37 W/m2 SKC
05:50 -22.2 °C -24.3 °C 1042.2 hPa Calm     83 % 0 mm WeatherDisplay:10.37 W/m2 SKC
05:55 -22.2 °C -24.2 °C 1042.2 hPa Calm     84 % 0 mm WeatherDisplay:10.37 W/m2 SKC
06:00 -22.2 °C -24.2 °C 1042.2 hPa Calm     84 % 0 mm WeatherDisplay:10.37 W/m2 SKC
06:05 -22.2 °C -24.2 °C 1042.2 hPa Calm     84 % 0 mm WeatherDisplay:10.37 W/m2 SKC
06:10 -22.3 °C -24.2 °C 1042.2 hPa Calm     84 % 0 mm WeatherDisplay:10.37 W/m2 SKC
06:15 -22.3 °C -24.2 °C 1042.2 hPa Calm     84 % 0 mm WeatherDisplay:10.37 W/m2 SKC
06:20 -22.3 °C -24.3 °C 1042.2 hPa NNW 1.6 km/h 1.6 km/h 84 % 0 mm WeatherDisplay:10.37 W/m2 SKC
06:25 -22.3 °C -24.4 °C 1042.5 hPa Calm   1.6 km/h 83 % 0 mm WeatherDisplay:10.37 W/m2 SKC
06:30 -22.4 °C -24.5 °C 1042.5 hPa Calm     83 % 0 mm WeatherDisplay:10.37 W/m2 SKC
06:35 -22.4 °C -24.5 °C 1042.5 hPa Calm     83 % 0 mm WeatherDisplay:10.37 W/m2 SKC
06:40 -22.4 °C -24.6 °C 1042.5 hPa Calm   1.6 km/h 83 % 0 mm WeatherDisplay:10.37 W/m2 SKC
06:45 -22.4 °C -24.4 °C 1042.5 hPa Calm     84 % 0 mm WeatherDisplay:10.37 W/m2 SKC
06:50 -22.5 °C -24.4 °C 1042.9 hPa Calm     84 % 0 mm WeatherDisplay:10.37 W/m2 SKC
06:55 -22.5 °C -24.4 °C 1042.9 hPa Calm     84 % 0 mm WeatherDisplay:10.37 W/m2 SKC
07:00 -22.6 °C -24.7 °C 1042.9 hPa Calm     83 % 0 mm WeatherDisplay:10.37 W/m2 SKC
07:05 -22.6 °C -24.7 °C 1042.9 hPa Calm     83 % 0 mm WeatherDisplay:10.37 W/m2 SKC
07:10 -22.7 °C -24.8 °C 1042.9 hPa Calm     83 % 0 mm WeatherDisplay:10.37 W/m2 SKC
07:15 -22.7 °C -24.8 °C 1042.9 hPa Calm     83 % 0 mm WeatherDisplay:10.37 W/m2 FEW
07:20 -22.8 °C -24.9 °C 1042.9 hPa Calm     83 % 0 mm WeatherDisplay:10.37 W/m2 FEW
07:25 -22.8 °C -24.9 °C 1042.9 hPa Calm     83 % 0 mm WeatherDisplay:10.37 W/m2 FEW
07:30 -22.8 °C -24.9 °C 1042.9 hPa Calm     83 % 0 mm WeatherDisplay:10.37 W/m2 FEW
07:35 -22.8 °C -24.9 °C 1042.9 hPa Calm     83 % 0 mm WeatherDisplay:10.37 W/m2 FEW
07:40 -22.8 °C -24.9 °C 1042.9 hPa Calm     83 % 0 mm WeatherDisplay:10.37 W/m2 FEW
07:45 -22.8 °C -24.9 °C 1042.9 hPa Calm     83 % 0 mm WeatherDisplay:10.37 W/m2 FEW
07:50 -22.8 °C -24.9 °C 1043.2 hPa Calm     83 % 0 mm WeatherDisplay:10.37 W/m2 FEW
07:55 -22.8 °C -24.9 °C 1043.2 hPa Calm     83 % 0 mm WeatherDisplay:10.37 W/m2 FEW
08:00 -22.7 °C -24.7 °C 1043.2 hPa Calm     84 % 0 mm WeatherDisplay:10.37 W/m2 FEW
08:05 -22.6 °C -24.6 °C 1043.2 hPa Calm     84 % 0 mm WeatherDisplay:10.37 W/m2 FEW
08:10 -22.6 °C -24.5 °C 1043.2 hPa Calm     84 % 0 mm WeatherDisplay:10.37 W/m2 FEW
08:15 -22.4 °C -24.4 °C 1043.6 hPa Calm     84 % 0 mm WeatherDisplay:10.37 W/m2 FEW
08:20 -22.3 °C -24.1 °C 1043.2 hPa Calm     85 % 0 mm WeatherDisplay:10.37 W/m2 FEW
08:25 -22.1 °C -23.9 °C 1043.6 hPa Calm     85 % 0 mm WeatherDisplay:10.37 W/m2 FEW
08:30 -21.8 °C -23.4 °C 1043.6 hPa Calm     86 % 0 mm WeatherDisplay:10.37 W/m2 FEW
08:35 -21.5 °C -23.2 °C 1043.6 hPa Calm     86 % 0 mm WeatherDisplay:10.37 W/m2 FEW
08:40 -21.2 °C -22.8 °C 1043.2 hPa Calm     87 % 0 mm WeatherDisplay:10.37 W/m2 FEW
08:45 -20.9 °C -22.5 °C 1043.2 hPa Calm     87 % 0 mm WeatherDisplay:10.37 W/m2 FEW
08:50 -20.5 °C -21.9 °C 1043.2 hPa Calm     88 % 0 mm WeatherDisplay:10.37 W/m2 FEW
08:55 -19.9 °C -21.4 °C 1043.2 hPa Calm     88 % 0 mm WeatherDisplay:10.37 W/m2 FEW
09:00 -19.4 °C -20.7 °C 1043.2 hPa Calm     89 % 0 mm WeatherDisplay:10.37 W/m2 FEW
09:05 -18.8 °C -20.2 °C 1043.2 hPa Calm     89 % 0 mm WeatherDisplay:10.37 W/m2 FEW
09:10 -18.2 °C -19.4 °C 1043.6 hPa Calm   1.6 km/h 90 % 0 mm WeatherDisplay:10.37 W/m2 FEW
09:15 -17.5 °C -18.7 °C 1043.6 hPa Calm     90 % 0 mm WeatherDisplay:10.37 W/m2 FEW
09:20 -16.6 °C -17.7 °C 1043.6 hPa Calm   3.2 km/h 91 % 0 mm WeatherDisplay:10.37 W/m2 FEW
09:25 -15.4 °C -16.5 °C 1043.6 hPa Calm   6.4 km/h 92 % 0 mm WeatherDisplay:10.37 W/m2 FEW
09:30 -14.6 °C -15.6 °C 1043.6 hPa West 1.6 km/h 6.4 km/h 92 % 0 mm WeatherDisplay:10.37 W/m2 FEW
09:35 -13.8 °C -14.8 °C 1043.6 hPa Calm   1.6 km/h 92 % 0 mm WeatherDisplay:10.37 W/m2 FEW
09:40 -13.1 °C -14.1 °C 1043.6 hPa NW 1.6 km/h 4.8 km/h 92 % 0 mm WeatherDisplay:10.37 W/m2 FEW
09:45 -12.4 °C -13.5 °C 1043.2 hPa Calm   6.4 km/h 92 % 0 mm WeatherDisplay:10.37 W/m2 FEW
09:50 -11.9 °C -13 °C 1043.2 hPa WNW 1.6 km/h 6.4 km/h 92 % 0 mm WeatherDisplay:10.37 W/m2 FEW
09:55 -11.6 °C -12.7 °C 1043.2 hPa Calm   8 km/h 91 % 0 mm WeatherDisplay:10.37 W/m2 FEW
10:00 -11.3 °C -12.4 °C 1043.2 hPa Calm   3.2 km/h 91 % 0 mm WeatherDisplay:10.37 W/m2 FEW
10:05 -11 °C -12.2 °C 1042.9 hPa Calm   3.2 km/h 91 % 0 mm WeatherDisplay:10.37 W/m2 FEW
10:10 -10.7 °C -11.9 °C 1042.9 hPa Calm     91 % 0 mm WeatherDisplay:10.37 W/m2 FEW
10:15 -10.4 °C -11.7 °C 1042.9 hPa Calm   3.2 km/h 91 % 0 mm WeatherDisplay:10.37 W/m2 FEW
10:20 -10.2 °C -11.4 °C 1042.9 hPa Calm   1.6 km/h 91 % 0 mm WeatherDisplay:10.37 W/m2 FEW
10:25 -10 °C -11.2 °C 1042.5 hPa SW 1.6 km/h 8 km/h 91 % 0 mm WeatherDisplay:10.37 W/m2 FEW
10:30 -9.8 °C -11 °C 1042.5 hPa Calm   3.2 km/h 91 % 0 mm WeatherDisplay:10.37 W/m2 FEW
10:35 -9.6 °C -10.8 °C 1042.5 hPa Calm   1.6 km/h 91 % 0 mm WeatherDisplay:10.37 W/m2 FEW
10:40 -9.5 °C -10.8 °C 1042.9 hPa WSW 3.2 km/h 11.3 km/h 90 % 0 mm WeatherDisplay:10.37 W/m2 FEW
10:45 -9.5 °C -10.8 °C 1042.9 hPa Calm   6.4 km/h 90 % 0 mm WeatherDisplay:10.37 W/m2 FEW
10:50 -9.4 °C -10.7 °C 1042.9 hPa Calm   4.8 km/h 90 % 0 mm WeatherDisplay:10.37 W/m2 FEW
10:55 -9.2 °C -10.7 °C 1042.9 hPa Calm   3.2 km/h 89 % 0 mm WeatherDisplay:10.37 W/m2 FEW
11:00 -9.1 °C -10.6 °C 1042.9 hPa SSW 1.6 km/h 3.2 km/h 89 % 0 mm WeatherDisplay:10.37 W/m2 FEW
11:05 -8.9 °C -10.4 °C 1042.9 hPa Calm   9.7 km/h 89 % 0 mm WeatherDisplay:10.37 W/m2 FEW
11:10 -8.8 °C -10.4 °C 1042.9 hPa SW 3.2 km/h 12.9 km/h 88 % 0 mm WeatherDisplay:10.37 W/m2 FEW
11:15 -8.6 °C -10.2 °C 1042.9 hPa Calm   3.2 km/h 88 % 0 mm WeatherDisplay:10.37 W/m2 FEW
11:20 -8.4 °C -10.2 °C 1042.9 hPa Calm   9.7 km/h 87 % 0 mm WeatherDisplay:10.37 W/m2 FEW
11:30 -8.2 °C -10.4 °C 1042.5 hPa NW 3.2 km/h 14.5 km/h 84 % 0 mm WeatherDisplay:10.37 W/m2 FEW
11:35 -8.2 °C -10.7 °C 1042.5 hPa WNW 4.8 km/h 11.3 km/h 82 % 0 mm WeatherDisplay:10.37 W/m2 FEW
11:40 -8.2 °C -10.8 °C 1042.2 hPa Calm   14.5 km/h 81 % 0 mm WeatherDisplay:10.37 W/m2 FEW
11:45 -8.1 °C -10.9 °C 1042.2 hPa West 3.2 km/h 11.3 km/h 80 % 0 mm WeatherDisplay:10.37 W/m2 FEW
11:50 -8 °C -11 °C 1042.2 hPa WSW 1.6 km/h 9.7 km/h 79 % 0 mm WeatherDisplay:10.37 W/m2 FEW
11:55 -7.8 °C -10.8 °C 1042.2 hPa SW 1.6 km/h 8 km/h 79 % 0 mm WeatherDisplay:10.37 W/m2 FEW
12:00 -7.7 °C -10.6 °C 1042.2 hPa SW 1.6 km/h 8 km/h 80 % 0 mm WeatherDisplay:10.37 W/m2 FEW
12:05 -7.6 °C -10.6 °C 1041.9 hPa WSW 1.6 km/h 9.7 km/h 79 % 0 mm WeatherDisplay:10.37 W/m2 FEW
12:10 -7.5 °C -10.7 °C 1041.9 hPa WSW 1.6 km/h 9.7 km/h 78 % 0 mm WeatherDisplay:10.37 W/m2 FEW
12:15 -7.4 °C -10.6 °C 1041.9 hPa SW 1.6 km/h 11.3 km/h 78 % 0 mm WeatherDisplay:10.37 W/m2 FEW
12:20 -7.3 °C -10.4 °C 1041.9 hPa Calm   8 km/h 78 % 0 mm WeatherDisplay:10.37 W/m2 FEW
12:25 -7.2 °C -10.2 °C 1041.5 hPa WSW 1.6 km/h 8 km/h 79 % 0 mm WeatherDisplay:10.37 W/m2 FEW
12:30 -7.1 °C -10.1 °C 1041.5 hPa Calm   4.8 km/h 79 % 0 mm WeatherDisplay:10.37 W/m2 FEW
12:35 -7.1 °C -10.2 °C 1041.5 hPa Calm   6.4 km/h 78 % 0 mm WeatherDisplay:10.37 W/m2 FEW
12:40 -6.9 °C -10.2 °C 1041.5 hPa Calm   1.6 km/h 78 % 0 mm WeatherDisplay:10.37 W/m2 FEW
12:45 -6.9 °C -9.9 °C 1041.5 hPa West 1.6 km/h 9.7 km/h 79 % 0 mm WeatherDisplay:10.37 W/m2 FEW
12:50 -6.9 °C -10.3 °C 1041.2 hPa WNW 3.2 km/h 14.5 km/h 77 % 0 mm WeatherDisplay:10.37 W/m2 FEW
12:55 -6.9 °C -10.4 °C 1041.2 hPa WNW 1.6 km/h 8 km/h 76 % 0 mm WeatherDisplay:10.37 W/m2 FEW
13:00 -6.9 °C -10.5 °C 1041.2 hPa WNW 1.6 km/h 9.7 km/h 76 % 0 mm WeatherDisplay:10.37 W/m2 FEW
13:05 -6.9 °C -10.3 °C 1040.9 hPa Calm   6.4 km/h 77 % 0 mm WeatherDisplay:10.37 W/m2 FEW
13:10 -6.9 °C -10.4 °C 1040.9 hPa WSW 3.2 km/h 12.9 km/h 76 % 0 mm WeatherDisplay:10.37 W/m2 FEW
13:15 -6.9 °C -10.6 °C 1040.9 hPa West 4.8 km/h 12.9 km/h 75 % 0 mm WeatherDisplay:10.37 W/m2 BKN
13:20 -6.9 °C -10.9 °C 1040.5 hPa West 3.2 km/h 14.5 km/h 73 % 0 mm WeatherDisplay:10.37 W/m2 BKN
13:25 -6.9 °C -10.8 °C 1040.5 hPa Calm   8 km/h 74 % 0 mm WeatherDisplay:10.37 W/m2 BKN
13:30 -6.9 °C -10.7 °C 1040.5 hPa West 4.8 km/h 19.3 km/h 74 % 0 mm WeatherDisplay:10.37 W/m2 BKN
13:34 -6.9 °C -10.7 °C 1040.2 hPa WNW 4.8 km/h 11.3 km/h 74 % 0 mm WeatherDisplay:10.37 W/m2 BKN
13:40 -6.9 °C -10.9 °C 1040.2 hPa NNW 4.8 km/h 12.9 km/h 73 % 0 mm WeatherDisplay:10.37 W/m2 BKN
13:45 -6.9 °C -11.2 °C 1040.2 hPa NW 9.7 km/h 22.5 km/h 72 % 0 mm WeatherDisplay:10.37 W/m2 BKN
13:49 -7 °C -11.2 °C 1040.2 hPa NW 8 km/h 14.5 km/h 72 % 0 mm WeatherDisplay:10.37 W/m2 BKN
13:55 -6.9 °C -11.2 °C 1039.8 hPa WNW 3.2 km/h 11.3 km/h 72 % 0 mm WeatherDisplay:10.37 W/m2 BKN
14:05 -7.2 °C -11.3 °C 1039.8 hPa NW 8 km/h 16.1 km/h 72 % 0 mm WeatherDisplay:10.37 W/m2 BKN
14:10 -7.2 °C -11 °C 1039.8 hPa NW 4.8 km/h 14.5 km/h 74 % 0 mm WeatherDisplay:10.37 W/m2 BKN
14:14 -7.1 °C -10.9 °C 1039.8 hPa WNW 1.6 km/h 9.7 km/h 74 % 0 mm WeatherDisplay:10.37 W/m2 BKN
14:19 -7 °C -10.7 °C 1039.5 hPa NW 4.8 km/h 12.9 km/h 75 % 0 mm WeatherDisplay:10.37 W/m2 BKN
14:25 -7.1 °C -11.1 °C 1039.2 hPa WNW 1.6 km/h 16.1 km/h 73 % 0 mm WeatherDisplay:10.37 W/m2 BKN
14:29 -7.1 °C -11.1 °C 1039.5 hPa WNW 8 km/h 14.5 km/h 73 % 0 mm WeatherDisplay:10.37 W/m2 BKN
14:34 -7.1 °C -11.1 °C 1039.5 hPa WNW 3.2 km/h 8 km/h 73 % 0 mm WeatherDisplay:10.37 W/m2 BKN
14:39 -7.1 °C -10.9 °C 1039.5 hPa Calm   9.7 km/h 74 % 0 mm WeatherDisplay:10.37 W/m2 BKN
14:44 -7.1 °C -10.9 °C 1039.5 hPa Calm   8 km/h 74 % 0 mm WeatherDisplay:10.37 W/m2 BKN
14:49 -7.1 °C -10.9 °C 1039.5 hPa West 4.8 km/h 11.3 km/h 74 % 0 mm WeatherDisplay:10.37 W/m2 BKN
14:55 -7.1 °C -10.9 °C 1039.5 hPa West 1.6 km/h 12.9 km/h 74 % 0 mm WeatherDisplay:10.37 W/m2 BKN
14:59 -7.1 °C -10.9 °C 1039.5 hPa NW 3.2 km/h 9.7 km/h 74 % 0 mm WeatherDisplay:10.37 W/m2 BKN
15:05 -7.2 °C -11.2 °C 1039.5 hPa NW 3.2 km/h 14.5 km/h 73 % 0 mm WeatherDisplay:10.37 W/m2 BKN
15:09 -7.3 °C -11.2 °C 1039.5 hPa Calm   4.8 km/h 74 % 0 mm WeatherDisplay:10.37 W/m2 BKN
15:14 -7.3 °C -11.2 °C 1039.5 hPa WSW 4.8 km/h 12.9 km/h 74 % 0 mm WeatherDisplay:10.37 W/m2 BKN
15:20 -7.4 °C -11.3 °C 1039.2 hPa WSW 4.8 km/h 14.5 km/h 74 % 0 mm WeatherDisplay:10.37 W/m2 BKN
15:25 -7.5 °C -11.3 °C 1039.2 hPa WNW 1.6 km/h 11.3 km/h 74 % 0 mm WeatherDisplay:10.37 W/m2 BKN
15:30 -7.6 °C -11.4 °C 1039.2 hPa WNW 3.2 km/h 9.7 km/h 74 % 0 mm WeatherDisplay:10.37 W/m2 BKN
15:35 -7.6 °C -11.4 °C 1039.2 hPa WNW 1.6 km/h 6.4 km/h 74 % 0 mm WeatherDisplay:10.37 W/m2 BKN
15:39 -7.7 °C -11.3 °C 1039.2 hPa WNW 1.6 km/h 6.4 km/h 75 % 0 mm WeatherDisplay:10.37 W/m2 BKN
15:45 -7.7 °C -11.4 °C 1039.2 hPa Calm   9.7 km/h 75 % 0 mm WeatherDisplay:10.37 W/m2 BKN
15:49 -7.7 °C -11.2 °C 1038.8 hPa West 1.6 km/h 6.4 km/h 76 % 0 mm WeatherDisplay:10.37 W/m2 BKN
15:55 -7.7 °C -11.2 °C 1038.8 hPa Calm   11.3 km/h 76 % 0 mm WeatherDisplay:10.37 W/m2 BKN
16:00 -7.8 °C -11.3 °C 1038.8 hPa Calm   6.4 km/h 76 % 0 mm WeatherDisplay:10.37 W/m2 BKN
16:09 -7.8 °C -11.2 °C 1038.5 hPa Calm   6.4 km/h 77 % 0 mm WeatherDisplay:10.37 W/m2 BKN
16:14 -7.8 °C -11.2 °C 1038.5 hPa Calm   6.4 km/h 77 % 0 mm WeatherDisplay:10.37 W/m2 OVC
16:19 -7.8 °C -11.2 °C 1038.5 hPa Calm   4.8 km/h 77 % 0 mm WeatherDisplay:10.37 W/m2 OVC
16:24 -7.8 °C -11 °C 1038.5 hPa Calm   1.6 km/h 78 % 0 mm WeatherDisplay:10.37 W/m2 OVC
16:30 -7.8 °C -10.8 °C 1038.1 hPa Calm   1.6 km/h 79 % 0 mm WeatherDisplay:10.37 W/m2 OVC
16:35 -7.8 °C -10.8 °C 1038.1 hPa Calm   3.2 km/h 79 % 0 mm WeatherDisplay:10.37 W/m2 OVC
16:40 -7.8 °C -10.8 °C 1037.8 hPa Calm   3.2 km/h 79 % 0 mm WeatherDisplay:10.37 W/m2 OVC
16:44 -7.8 °C -10.8 °C 1037.8 hPa West 1.6 km/h 6.4 km/h 79 % 0 mm WeatherDisplay:10.37 W/m2 OVC
16:49 -7.8 °C -10.8 °C 1037.8 hPa Calm   1.6 km/h 79 % 0 mm WeatherDisplay:10.37 W/m2 OVC
16:54 -7.8 °C -10.8 °C 1037.8 hPa Calm     79 % 0 mm WeatherDisplay:10.37 W/m2 OVC
16:59 -7.8 °C -10.8 °C 1037.8 hPa Calm   3.2 km/h 79 % 0 mm WeatherDisplay:10.37 W/m2 OVC
17:04 -7.8 °C -10.8 °C 1037.5 hPa Calm   3.2 km/h 79 % 0 mm WeatherDisplay:10.37 W/m2 OVC
17:09 -7.9 °C -10.9 °C 1037.5 hPa Calm   3.2 km/h 79 % 0 mm WeatherDisplay:10.37 W/m2 OVC
17:14 -7.9 °C -10.9 °C 1037.1 hPa Calm     79 % 0 mm WeatherDisplay:10.37 W/m2 BKN
17:19 -8 °C -11 °C 1037.1 hPa Calm   1.6 km/h 79 % 0 mm WeatherDisplay:10.37 W/m2 BKN
17:24 -8.1 °C -11.1 °C 1036.8 hPa Calm   1.6 km/h 79 % 0 mm WeatherDisplay:10.37 W/m2 BKN
17:29 -8.1 °C -10.9 °C 1036.8 hPa Calm   1.6 km/h 80 % 0 mm WeatherDisplay:10.37 W/m2 BKN
17:34 -8.2 °C -11 °C 1036.8 hPa Calm     80 % 0 mm WeatherDisplay:10.37 W/m2 BKN
17:39 -8.2 °C -11.1 °C 1036.5 hPa Calm     80 % 0 mm WeatherDisplay:10.37 W/m2 BKN
17:44 -8.3 °C -11.1 °C 1036.5 hPa Calm   1.6 km/h 80 % 0 mm WeatherDisplay:10.37 W/m2 BKN
17:49 -8.3 °C -11.2 °C 1036.5 hPa Calm     80 % 0 mm WeatherDisplay:10.37 W/m2 BKN
17:54 -8.4 °C -11.3 °C 1036.5 hPa Calm     80 % 0 mm WeatherDisplay:10.37 W/m2 BKN
17:59 -8.6 °C -11.6 °C 1036.1 hPa Calm     79 % 0 mm WeatherDisplay:10.37 W/m2 BKN
18:04 -8.7 °C -11.7 °C 1036.1 hPa Calm     79 % 0 mm WeatherDisplay:10.37 W/m2 BKN
18:09 -8.8 °C -11.8 °C 1036.1 hPa Calm     79 % 0 mm WeatherDisplay:10.37 W/m2 BKN
18:14 -8.9 °C -11.9 °C 1036.1 hPa Calm     79 % 0 mm WeatherDisplay:10.37 W/m2 BKN
18:19 -9.1 °C -12.1 °C 1036.1 hPa Calm     79 % 0 mm WeatherDisplay:10.37 W/m2 BKN
18:24 -9.1 °C -12.1 °C 1036.1 hPa Calm     79 % 0 mm WeatherDisplay:10.37 W/m2 BKN
18:29 -9.3 °C -12.3 °C 1035.8 hPa Calm     79 % 0 mm WeatherDisplay:10.37 W/m2 BKN
18:34 -9.5 °C -12.4 °C 1035.8 hPa Calm     79 % 0 mm WeatherDisplay:10.37 W/m2 BKN
18:39 -9.6 °C -12.4 °C 1035.4 hPa Calm     80 % 0 mm WeatherDisplay:10.37 W/m2 BKN
18:44 -9.7 °C -12.5 °C 1035.4 hPa Calm     80 % 0 mm WeatherDisplay:10.37 W/m2 BKN
18:49 -9.8 °C -12.6 °C 1035.4 hPa Calm     80 % 0 mm WeatherDisplay:10.37 W/m2 BKN
18:54 -9.9 °C -12.7 °C 1035.4 hPa Calm     80 % 0 mm WeatherDisplay:10.37 W/m2 BKN
18:59 -10 °C -12.8 °C 1035.4 hPa Calm     80 % 0 mm WeatherDisplay:10.37 W/m2 BKN
19:04 -10.1 °C -12.8 °C 1035.4 hPa Calm     81 % 0 mm WeatherDisplay:10.37 W/m2 BKN
19:09 -10.2 °C -12.9 °C 1035.1 hPa Calm     81 % 0 mm WeatherDisplay:10.37 W/m2 BKN
19:14 -10.4 °C -13 °C 1035.1 hPa Calm     81 % 0 mm WeatherDisplay:10.37 W/m2 BKN
19:19 -10.5 °C -13.2 °C 1035.1 hPa Calm     81 % 0 mm WeatherDisplay:10.37 W/m2 BKN
19:24 -10.7 °C -13.3 °C 1034.8 hPa Calm     81 % 0 mm WeatherDisplay:10.37 W/m2 BKN
19:29 -10.8 °C -13.4 °C 1034.8 hPa Calm     81 % 0 mm WeatherDisplay:10.37 W/m2 BKN
19:34 -11 °C -13.4 °C 1034.4 hPa Calm     82 % 0 mm WeatherDisplay:10.37 W/m2 BKN
19:39 -11.1 °C -13.6 °C 1034.4 hPa Calm     82 % 0 mm WeatherDisplay:10.37 W/m2 BKN
19:44 -11.2 °C -13.7 °C 1034.4 hPa Calm     82 % 0 mm WeatherDisplay:10.37 W/m2 BKN
19:49 -11.3 °C -13.8 °C 1034.4 hPa Calm     82 % 0 mm WeatherDisplay:10.37 W/m2 BKN
19:54 -11.4 °C -13.9 °C 1034.4 hPa Calm     82 % 0 mm WeatherDisplay:10.37 W/m2 BKN
19:59 -11.6 °C -14 °C 1034.1 hPa Calm     82 % 0 mm WeatherDisplay:10.37 W/m2 BKN
20:04 -11.6 °C -14.1 °C 1034.1 hPa Calm     82 % 0 mm WeatherDisplay:10.37 W/m2 BKN
20:09 -11.7 °C -14.1 °C 1033.7 hPa Calm     83 % 0 mm WeatherDisplay:10.37 W/m2 BKN
20:14 -11.8 °C -14.2 °C 1033.7 hPa Calm     83 % 0 mm WeatherDisplay:10.37 W/m2 BKN
20:19 -11.9 °C -14.2 °C 1033.7 hPa Calm     83 % 0 mm WeatherDisplay:10.37 W/m2 BKN
20:24 -12 °C -14.3 °C 1033.7 hPa Calm     83 % 0 mm WeatherDisplay:10.37 W/m2 BKN
20:29 -12.1 °C -14.4 °C 1033.7 hPa Calm   1.6 km/h 83 % 0 mm WeatherDisplay:10.37 W/m2 BKN
20:34 -12.2 °C -14.4 °C 1033.7 hPa Calm     84 % 0 mm WeatherDisplay:10.37 W/m2 BKN
20:39 -12.3 °C -14.4 °C 1033.4 hPa Calm     84 % 0 mm WeatherDisplay:10.37 W/m2 BKN
20:44 -12.3 °C -14.5 °C 1033.4 hPa Calm     84 % 0 mm WeatherDisplay:10.37 W/m2 BKN
20:49 -12.4 °C -14.6 °C 1033.1 hPa Calm     84 % 0 mm WeatherDisplay:10.37 W/m2 BKN
20:54 -12.4 °C -14.4 °C 1032.7 hPa Calm     85 % 0 mm WeatherDisplay:10.37 W/m2 BKN
20:59 -12.5 °C -14.5 °C 1032.7 hPa Calm     85 % 0 mm WeatherDisplay:10.37 W/m2 BKN
21:04 -12.6 °C -14.6 °C 1032.7 hPa Calm   1.6 km/h 85 % 0 mm WeatherDisplay:10.37 W/m2 BKN
21:09 -12.7 °C -14.7 °C 1032.7 hPa Calm     85 % 0 mm WeatherDisplay:10.37 W/m2 BKN
21:14 -12.8 °C -14.8 °C 1032.4 hPa Calm     85 % 0 mm WeatherDisplay:10.37 W/m2 BKN
21:19 -12.9 °C -14.9 °C 1032.4 hPa Calm     85 % 0 mm WeatherDisplay:10.37 W/m2 BKN
21:24 -13 °C -14.8 °C 1032.4 hPa Calm     86 % 0 mm WeatherDisplay:10.37 W/m2 BKN
21:29 -13.1 °C -14.9 °C 1032.1 hPa Calm     86 % 0 mm WeatherDisplay:10.37 W/m2 BKN
21:34 -13.1 °C -14.9 °C 1032.1 hPa Calm     86 % 0 mm WeatherDisplay:10.37 W/m2 BKN
21:39 -13.2 °C -15 °C 1032.1 hPa Calm     86 % 0 mm WeatherDisplay:10.37 W/m2 BKN
21:44 -13.2 °C -15 °C 1031.7 hPa Calm     86 % 0 mm WeatherDisplay:10.37 W/m2 BKN
21:49 -13.2 °C -14.9 °C 1031.7 hPa Calm     87 % 0 mm WeatherDisplay:10.37 W/m2 BKN
21:54 -13.2 °C -14.9 °C 1031.4 hPa Calm     87 % 0 mm WeatherDisplay:10.37 W/m2 BKN
21:59 -13.2 °C -14.9 °C 1031.4 hPa Calm     87 % 0 mm WeatherDisplay:10.37 W/m2 BKN
22:04 -13.2 °C -14.9 °C 1031 hPa Calm     87 % 0 mm WeatherDisplay:10.37 W/m2 BKN
22:09 -13.2 °C -14.9 °C 1031 hPa Calm     87 % 0 mm WeatherDisplay:10.37 W/m2 BKN
22:14 -13.1 °C -14.7 °C 1031 hPa Calm     88 % 0 mm WeatherDisplay:10.37 W/m2 BKN
22:19 -13.1 °C -14.7 °C 1030.7 hPa Calm     88 % 0 mm WeatherDisplay:10.37 W/m2 BKN
22:24 -13.1 °C -14.6 °C 1030.7 hPa Calm     88 % 0 mm WeatherDisplay:10.37 W/m2 BKN
22:29 -13 °C -14.6 °C 1030.7 hPa Calm     88 % 0 mm WeatherDisplay:10.37 W/m2 BKN
22:34 -12.9 °C -14.5 °C 1030.4 hPa Calm     88 % 0 mm WeatherDisplay:10.37 W/m2 BKN
22:39 -12.9 °C -14.4 °C 1030.4 hPa Calm     88 % 0 mm WeatherDisplay:10.37 W/m2 BKN
22:44 -12.8 °C -14.3 °C 1030.4 hPa Calm     89 % 0 mm WeatherDisplay:10.37 W/m2 BKN
22:49 -12.8 °C -14.2 °C 1030.4 hPa Calm     89 % 0 mm WeatherDisplay:10.37 W/m2 BKN
22:54 -12.7 °C -14.1 °C 1030 hPa Calm     89 % 0 mm WeatherDisplay:10.37 W/m2 BKN
22:59 -12.6 °C -14.1 °C 1030 hPa Calm     89 % 0 mm WeatherDisplay:10.37 W/m2 BKN
23:04 -12.6 °C -14 °C 1030 hPa Calm     89 % 0 mm WeatherDisplay:10.37 W/m2 BKN
23:09 -12.6 °C -14 °C 1029.7 hPa Calm     89 % 0 mm WeatherDisplay:10.37 W/m2 BKN
23:14 -12.5 °C -13.9 °C 1029.3 hPa Calm     89 % 0 mm WeatherDisplay:10.37 W/m2 BKN
23:19 -12.4 °C -13.9 °C 1029.3 hPa Calm     89 % 0 mm WeatherDisplay:10.37 W/m2 BKN
23:24 -12.4 °C -13.8 °C 1029.3 hPa Calm     89 % 0 mm WeatherDisplay:10.37 W/m2 BKN
23:29 -12.4 °C -13.8 °C 1029 hPa Calm     89 % 0 mm WeatherDisplay:10.37 W/m2 BKN
23:34 -12.3 °C -13.8 °C 1029 hPa Calm     89 % 0 mm WeatherDisplay:10.37 W/m2 BKN
23:39 -12.3 °C -13.8 °C 1028.7 hPa Calm     89 % 0 mm WeatherDisplay:10.37 W/m2 BKN
23:44 -12.3 °C -13.8 °C 1028.7 hPa Calm     89 % 0 mm WeatherDisplay:10.37 W/m2 BKN
23:49 -12.4 °C -13.8 °C 1028.3 hPa Calm     89 % 0 mm WeatherDisplay:10.37 W/m2 BKN
23:54 -12.5 °C -14.1 °C 1028.3 hPa Calm     88 % 0 mm WeatherDisplay:10.37 W/m2 BKN
23:59 -12.6 °C -14.1 °C 1028 hPa Calm     88 % 0 mm WeatherDisplay:10.37 W/m2 BKN
Juneau County Weather
Compliments of Weather Underground - 2.75 mb